sensor_id;sensor_type;location;lat;lon;timestamp;P1;durP1;ratioP1;P2;durP2;ratioP2
41709;SDS011;59402;48.396;-4.472;2023-02-13T00:00:35;33.33;;;21.98;;
41709;SDS011;59402;48.396;-4.472;2023-02-13T00:03:01;32.13;;;23.02;;
41709;SDS011;59402;48.396;-4.472;2023-02-13T00:05:27;33.47;;;22.65;;
41709;SDS011;59402;48.396;-4.472;2023-02-13T00:07:52;35.50;;;23.75;;
41709;SDS011;59402;48.396;-4.472;2023-02-13T00:10:18;34.22;;;23.73;;
41709;SDS011;59402;48.396;-4.472;2023-02-13T00:12:44;34.30;;;22.67;;
41709;SDS011;59402;48.396;-4.472;2023-02-13T00:15:09;33.20;;;22.95;;
41709;SDS011;59402;48.396;-4.472;2023-02-13T00:17:36;34.70;;;23.52;;
41709;SDS011;59402;48.396;-4.472;2023-02-13T00:20:02;32.08;;;22.85;;
41709;SDS011;59402;48.396;-4.472;2023-02-13T00:22:28;31.33;;;23.17;;
41709;SDS011;59402;48.396;-4.472;2023-02-13T00:24:54;31.13;;;22.65;;
41709;SDS011;59402;48.396;-4.472;2023-02-13T00:27:20;35.78;;;23.15;;
41709;SDS011;59402;48.396;-4.472;2023-02-13T00:29:45;33.63;;;22.70;;
41709;SDS011;59402;48.396;-4.472;2023-02-13T00:32:11;33.72;;;23.85;;
41709;SDS011;59402;48.396;-4.472;2023-02-13T00:34:38;34.07;;;23.33;;
41709;SDS011;59402;48.396;-4.472;2023-02-13T00:37:04;35.08;;;23.15;;
41709;SDS011;59402;48.396;-4.472;2023-02-13T00:39:30;31.63;;;23.00;;
41709;SDS011;59402;48.396;-4.472;2023-02-13T00:41:55;31.85;;;22.77;;
41709;SDS011;59402;48.396;-4.472;2023-02-13T00:44:21;36.00;;;23.95;;
41709;SDS011;59402;48.396;-4.472;2023-02-13T00:46:47;37.75;;;25.45;;
41709;SDS011;59402;48.396;-4.472;2023-02-13T00:49:12;33.42;;;24.02;;
41709;SDS011;59402;48.396;-4.472;2023-02-13T00:51:38;35.92;;;23.83;;
41709;SDS011;59402;48.396;-4.472;2023-02-13T00:54:04;34.55;;;25.02;;
41709;SDS011;59402;48.396;-4.472;2023-02-13T00:56:30;33.28;;;23.75;;
41709;SDS011;59402;48.396;-4.472;2023-02-13T00:58:56;36.67;;;23.92;;
41709;SDS011;59402;48.396;-4.472;2023-02-13T01:01:23;35.95;;;25.10;;
41709;SDS011;59402;48.396;-4.472;2023-02-13T01:03:49;34.78;;;24.70;;
41709;SDS011;59402;48.396;-4.472;2023-02-13T01:06:15;34.88;;;24.15;;
41709;SDS011;59402;48.396;-4.472;2023-02-13T01:08:40;36.40;;;24.10;;
41709;SDS011;59402;48.396;-4.472;2023-02-13T01:11:07;32.75;;;23.65;;
41709;SDS011;59402;48.396;-4.472;2023-02-13T01:13:34;37.28;;;25.63;;
41709;SDS011;59402;48.396;-4.472;2023-02-13T01:16:00;36.65;;;24.75;;
41709;SDS011;59402;48.396;-4.472;2023-02-13T01:18:26;37.20;;;25.23;;
41709;SDS011;59402;48.396;-4.472;2023-02-13T01:21:04;35.90;;;25.00;;
41709;SDS011;59402;48.396;-4.472;2023-02-13T01:23:32;34.65;;;24.50;;
41709;SDS011;59402;48.396;-4.472;2023-02-13T01:25:59;37.25;;;24.05;;
41709;SDS011;59402;48.396;-4.472;2023-02-13T01:28:25;36.13;;;24.42;;
41709;SDS011;59402;48.396;-4.472;2023-02-13T01:30:51;37.85;;;24.95;;
41709;SDS011;59402;48.396;-4.472;2023-02-13T01:33:21;37.78;;;24.52;;
41709;SDS011;59402;48.396;-4.472;2023-02-13T01:35:47;34.75;;;23.40;;
41709;SDS011;59402;48.396;-4.472;2023-02-13T01:38:13;37.05;;;24.58;;
41709;SDS011;59402;48.396;-4.472;2023-02-13T01:40:43;36.35;;;25.05;;
41709;SDS011;59402;48.396;-4.472;2023-02-13T01:43:10;33.72;;;23.13;;
41709;SDS011;59402;48.396;-4.472;2023-02-13T01:45:36;33.50;;;24.05;;
41709;SDS011;59402;48.396;-4.472;2023-02-13T01:48:03;34.83;;;24.30;;
41709;SDS011;59402;48.396;-4.472;2023-02-13T01:53:06;37.75;;;26.27;;
41709;SDS011;59402;48.396;-4.472;2023-02-13T01:55:44;35.08;;;24.33;;
41709;SDS011;59402;48.396;-4.472;2023-02-13T01:58:24;39.05;;;25.15;;
41709;SDS011;59402;48.396;-4.472;2023-02-13T02:00:51;37.03;;;25.23;;
41709;SDS011;59402;48.396;-4.472;2023-02-13T02:03:22;37.22;;;24.23;;
41709;SDS011;59402;48.396;-4.472;2023-02-13T02:05:59;36.83;;;25.00;;
41709;SDS011;59402;48.396;-4.472;2023-02-13T02:08:25;37.60;;;24.83;;
41709;SDS011;59402;48.396;-4.472;2023-02-13T02:10:54;34.92;;;25.13;;
41709;SDS011;59402;48.396;-4.472;2023-02-13T02:13:21;36.33;;;24.40;;
41709;SDS011;59402;48.396;-4.472;2023-02-13T02:18:17;34.50;;;24.40;;
41709;SDS011;59402;48.396;-4.472;2023-02-13T02:31:42;36.63;;;24.95;;
41709;SDS011;59402;48.396;-4.472;2023-02-13T02:56:13;36.55;;;25.30;;
41709;SDS011;59402;48.396;-4.472;2023-02-13T02:58:47;37.63;;;24.92;;
41709;SDS011;59402;48.396;-4.472;2023-02-13T03:01:38;39.88;;;25.38;;
41709;SDS011;59402;48.396;-4.472;2023-02-13T03:04:33;40.85;;;25.75;;
41709;SDS011;59402;48.396;-4.472;2023-02-13T03:07:22;35.60;;;25.23;;
41709;SDS011;59402;48.396;-4.472;2023-02-13T03:09:52;37.70;;;26.42;;
41709;SDS011;59402;48.396;-4.472;2023-02-13T03:13:30;39.78;;;25.27;;
41709;SDS011;59402;48.396;-4.472;2023-02-13T03:15:51;38.88;;;26.15;;
41709;SDS011;59402;48.396;-4.472;2023-02-13T03:18:40;39.13;;;25.48;;
41709;SDS011;59402;48.396;-4.472;2023-02-13T03:21:42;41.42;;;26.88;;
41709;SDS011;59402;48.396;-4.472;2023-02-13T03:24:34;37.85;;;26.25;;
41709;SDS011;59402;48.396;-4.472;2023-02-13T03:27:13;40.17;;;26.40;;
41709;SDS011;59402;48.396;-4.472;2023-02-13T03:33:16;37.53;;;25.00;;
41709;SDS011;59402;48.396;-4.472;2023-02-13T03:36:14;35.13;;;25.15;;
41709;SDS011;59402;48.396;-4.472;2023-02-13T03:39:21;36.20;;;25.25;;
41709;SDS011;59402;48.396;-4.472;2023-02-13T03:42:13;40.65;;;24.95;;
41709;SDS011;59402;48.396;-4.472;2023-02-13T03:44:47;38.88;;;26.00;;
41709;SDS011;59402;48.396;-4.472;2023-02-13T03:47:41;41.40;;;26.10;;
41709;SDS011;59402;48.396;-4.472;2023-02-13T03:50:08;42.97;;;27.17;;
41709;SDS011;59402;48.396;-4.472;2023-02-13T03:55:11;40.15;;;27.52;;
41709;SDS011;59402;48.396;-4.472;2023-02-13T03:58:07;39.30;;;26.98;;
41709;SDS011;59402;48.396;-4.472;2023-02-13T04:00:57;41.35;;;26.92;;
41709;SDS011;59402;48.396;-4.472;2023-02-13T04:05:52;40.47;;;26.05;;
41709;SDS011;59402;48.396;-4.472;2023-02-13T04:08:21;38.65;;;26.83;;
41709;SDS011;59402;48.396;-4.472;2023-02-13T04:10:49;41.38;;;28.13;;
41709;SDS011;59402;48.396;-4.472;2023-02-13T04:15:57;38.88;;;25.98;;
41709;SDS011;59402;48.396;-4.472;2023-02-13T04:18:45;44.90;;;26.73;;
41709;SDS011;59402;48.396;-4.472;2023-02-13T04:21:12;39.85;;;26.45;;
41709;SDS011;59402;48.396;-4.472;2023-02-13T04:23:38;41.33;;;27.17;;
41709;SDS011;59402;48.396;-4.472;2023-02-13T04:26:07;38.42;;;26.83;;
41709;SDS011;59402;48.396;-4.472;2023-02-13T04:28:46;42.90;;;27.17;;
41709;SDS011;59402;48.396;-4.472;2023-02-13T04:31:12;41.63;;;26.92;;
41709;SDS011;59402;48.396;-4.472;2023-02-13T04:33:38;43.53;;;28.27;;
41709;SDS011;59402;48.396;-4.472;2023-02-13T04:36:04;40.33;;;26.25;;
41709;SDS011;59402;48.396;-4.472;2023-02-13T04:38:29;37.63;;;26.60;;
41709;SDS011;59402;48.396;-4.472;2023-02-13T04:40:55;41.25;;;26.65;;
41709;SDS011;59402;48.396;-4.472;2023-02-13T04:43:21;41.55;;;28.65;;
41709;SDS011;59402;48.396;-4.472;2023-02-13T04:45:47;42.13;;;28.17;;
41709;SDS011;59402;48.396;-4.472;2023-02-13T04:48:13;39.95;;;27.17;;
41709;SDS011;59402;48.396;-4.472;2023-02-13T04:50:39;38.72;;;27.08;;
41709;SDS011;59402;48.396;-4.472;2023-02-13T04:53:05;44.97;;;27.67;;
41709;SDS011;59402;48.396;-4.472;2023-02-13T04:55:31;38.75;;;26.27;;
41709;SDS011;59402;48.396;-4.472;2023-02-13T04:57:56;39.88;;;26.15;;
41709;SDS011;59402;48.396;-4.472;2023-02-13T05:00:24;38.42;;;26.10;;
41709;SDS011;59402;48.396;-4.472;2023-02-13T05:02:50;40.08;;;26.33;;
41709;SDS011;59402;48.396;-4.472;2023-02-13T05:05:16;38.95;;;26.25;;
41709;SDS011;59402;48.396;-4.472;2023-02-13T05:07:42;43.25;;;27.02;;
41709;SDS011;59402;48.396;-4.472;2023-02-13T05:10:09;43.05;;;26.98;;
41709;SDS011;59402;48.396;-4.472;2023-02-13T05:12:36;42.35;;;28.05;;
41709;SDS011;59402;48.396;-4.472;2023-02-13T05:15:02;43.05;;;27.33;;
41709;SDS011;59402;48.396;-4.472;2023-02-13T05:17:28;42.83;;;26.92;;
41709;SDS011;59402;48.396;-4.472;2023-02-13T05:19:54;41.47;;;27.23;;
41709;SDS011;59402;48.396;-4.472;2023-02-13T05:22:19;39.83;;;26.98;;
41709;SDS011;59402;48.396;-4.472;2023-02-13T05:25:04;36.72;;;25.75;;
41709;SDS011;59402;48.396;-4.472;2023-02-13T05:27:30;42.03;;;27.13;;
41709;SDS011;59402;48.396;-4.472;2023-02-13T05:29:56;39.90;;;27.15;;
41709;SDS011;59402;48.396;-4.472;2023-02-13T05:32:21;38.40;;;26.17;;
41709;SDS011;59402;48.396;-4.472;2023-02-13T05:34:47;38.55;;;26.30;;
41709;SDS011;59402;48.396;-4.472;2023-02-13T05:37:13;41.92;;;27.73;;
41709;SDS011;59402;48.396;-4.472;2023-02-13T05:39:38;42.95;;;28.00;;
41709;SDS011;59402;48.396;-4.472;2023-02-13T05:42:04;38.50;;;25.63;;
41709;SDS011;59402;48.396;-4.472;2023-02-13T05:44:30;39.33;;;26.05;;
41709;SDS011;59402;48.396;-4.472;2023-02-13T05:46:56;45.05;;;27.65;;
41709;SDS011;59402;48.396;-4.472;2023-02-13T05:49:22;43.72;;;28.10;;
41709;SDS011;59402;48.396;-4.472;2023-02-13T05:51:48;40.00;;;27.40;;
41709;SDS011;59402;48.396;-4.472;2023-02-13T05:54:16;41.35;;;26.77;;
41709;SDS011;59402;48.396;-4.472;2023-02-13T05:56:42;44.33;;;28.85;;
41709;SDS011;59402;48.396;-4.472;2023-02-13T05:59:07;41.65;;;26.27;;
41709;SDS011;59402;48.396;-4.472;2023-02-13T06:01:33;41.58;;;27.42;;
41709;SDS011;59402;48.396;-4.472;2023-02-13T06:03:59;44.78;;;28.98;;
41709;SDS011;59402;48.396;-4.472;2023-02-13T06:06:25;44.85;;;29.30;;
41709;SDS011;59402;48.396;-4.472;2023-02-13T06:08:51;44.28;;;30.20;;
41709;SDS011;59402;48.396;-4.472;2023-02-13T06:11:17;41.53;;;27.50;;
41709;SDS011;59402;48.396;-4.472;2023-02-13T06:13:42;48.80;;;30.00;;
41709;SDS011;59402;48.396;-4.472;2023-02-13T06:16:09;46.25;;;28.45;;
41709;SDS011;59402;48.396;-4.472;2023-02-13T06:18:36;47.42;;;29.00;;
41709;SDS011;59402;48.396;-4.472;2023-02-13T06:21:03;44.70;;;29.45;;
41709;SDS011;59402;48.396;-4.472;2023-02-13T06:23:29;49.22;;;29.58;;
41709;SDS011;59402;48.396;-4.472;2023-02-13T06:26:00;47.53;;;28.95;;
41709;SDS011;59402;48.396;-4.472;2023-02-13T06:28:27;46.38;;;29.73;;
41709;SDS011;59402;48.396;-4.472;2023-02-13T06:30:52;43.35;;;29.05;;
41709;SDS011;59402;48.396;-4.472;2023-02-13T06:33:18;45.70;;;29.65;;
41709;SDS011;59402;48.396;-4.472;2023-02-13T06:35:44;46.53;;;29.95;;
41709;SDS011;59402;48.396;-4.472;2023-02-13T06:38:09;43.70;;;28.42;;
41709;SDS011;59402;48.396;-4.472;2023-02-13T06:40:35;45.85;;;29.38;;
41709;SDS011;59402;48.396;-4.472;2023-02-13T06:43:01;45.40;;;30.75;;
41709;SDS011;59402;48.396;-4.472;2023-02-13T06:45:27;49.90;;;30.80;;
41709;SDS011;59402;48.396;-4.472;2023-02-13T06:47:52;49.08;;;30.95;;
41709;SDS011;59402;48.396;-4.472;2023-02-13T06:50:18;46.03;;;28.88;;
41709;SDS011;59402;48.396;-4.472;2023-02-13T06:52:47;43.80;;;28.73;;
41709;SDS011;59402;48.396;-4.472;2023-02-13T06:55:14;47.28;;;29.52;;
41709;SDS011;59402;48.396;-4.472;2023-02-13T06:57:41;44.83;;;29.23;;
41709;SDS011;59402;48.396;-4.472;2023-02-13T07:00:07;47.70;;;29.73;;
41709;SDS011;59402;48.396;-4.472;2023-02-13T07:02:37;45.70;;;30.75;;
41709;SDS011;59402;48.396;-4.472;2023-02-13T07:05:06;46.20;;;29.88;;
41709;SDS011;59402;48.396;-4.472;2023-02-13T07:07:34;48.72;;;28.42;;
41709;SDS011;59402;48.396;-4.472;2023-02-13T07:10:01;52.30;;;29.30;;
41709;SDS011;59402;48.396;-4.472;2023-02-13T07:12:28;45.00;;;28.23;;
41709;SDS011;59402;48.396;-4.472;2023-02-13T07:14:54;48.13;;;29.95;;
41709;SDS011;59402;48.396;-4.472;2023-02-13T07:17:19;49.42;;;30.30;;
41709;SDS011;59402;48.396;-4.472;2023-02-13T07:19:45;46.20;;;29.98;;
41709;SDS011;59402;48.396;-4.472;2023-02-13T07:22:11;45.38;;;29.58;;
41709;SDS011;59402;48.396;-4.472;2023-02-13T07:24:36;47.63;;;30.92;;
41709;SDS011;59402;48.396;-4.472;2023-02-13T07:27:03;46.55;;;29.48;;
41709;SDS011;59402;48.396;-4.472;2023-02-13T07:29:29;44.38;;;29.75;;
41709;SDS011;59402;48.396;-4.472;2023-02-13T07:31:55;48.85;;;30.70;;
41709;SDS011;59402;48.396;-4.472;2023-02-13T07:34:20;46.10;;;30.05;;
41709;SDS011;59402;48.396;-4.472;2023-02-13T07:36:46;46.85;;;30.20;;
41709;SDS011;59402;48.396;-4.472;2023-02-13T07:39:12;46.33;;;29.75;;
41709;SDS011;59402;48.396;-4.472;2023-02-13T07:41:38;44.40;;;29.90;;
41709;SDS011;59402;48.396;-4.472;2023-02-13T07:44:05;47.83;;;29.80;;
41709;SDS011;59402;48.396;-4.472;2023-02-13T07:46:31;46.13;;;29.60;;
41709;SDS011;59402;48.396;-4.472;2023-02-13T07:48:57;47.13;;;28.95;;
41709;SDS011;59402;48.396;-4.472;2023-02-13T07:51:22;45.97;;;29.85;;
41709;SDS011;59402;48.396;-4.472;2023-02-13T07:53:50;47.47;;;29.75;;
41709;SDS011;59402;48.396;-4.472;2023-02-13T07:56:16;47.50;;;30.77;;
41709;SDS011;59402;48.396;-4.472;2023-02-13T07:58:42;52.63;;;32.40;;
41709;SDS011;59402;48.396;-4.472;2023-02-13T08:01:09;46.90;;;31.63;;
41709;SDS011;59402;48.396;-4.472;2023-02-13T08:03:36;48.20;;;30.80;;
41709;SDS011;59402;48.396;-4.472;2023-02-13T08:06:02;45.22;;;28.60;;
41709;SDS011;59402;48.396;-4.472;2023-02-13T08:08:28;46.95;;;29.83;;
41709;SDS011;59402;48.396;-4.472;2023-02-13T08:10:54;47.78;;;30.15;;
41709;SDS011;59402;48.396;-4.472;2023-02-13T08:13:39;46.10;;;30.08;;
41709;SDS011;59402;48.396;-4.472;2023-02-13T08:16:05;46.08;;;28.50;;
41709;SDS011;59402;48.396;-4.472;2023-02-13T08:18:31;45.67;;;29.13;;
41709;SDS011;59402;48.396;-4.472;2023-02-13T08:20:57;43.67;;;29.30;;
41709;SDS011;59402;48.396;-4.472;2023-02-13T08:23:23;42.30;;;28.20;;
41709;SDS011;59402;48.396;-4.472;2023-02-13T08:25:48;41.60;;;27.48;;
41709;SDS011;59402;48.396;-4.472;2023-02-13T08:28:14;43.75;;;28.90;;
41709;SDS011;59402;48.396;-4.472;2023-02-13T08:30:40;39.05;;;26.65;;
41709;SDS011;59402;48.396;-4.472;2023-02-13T08:33:06;43.28;;;28.25;;
41709;SDS011;59402;48.396;-4.472;2023-02-13T08:35:32;41.95;;;28.33;;
41709;SDS011;59402;48.396;-4.472;2023-02-13T08:38:04;40.47;;;27.30;;
41709;SDS011;59402;48.396;-4.472;2023-02-13T08:40:30;39.80;;;26.92;;
41709;SDS011;59402;48.396;-4.472;2023-02-13T08:42:58;39.03;;;27.10;;
41709;SDS011;59402;48.396;-4.472;2023-02-13T08:45:25;40.35;;;27.30;;
41709;SDS011;59402;48.396;-4.472;2023-02-13T08:47:54;42.22;;;26.45;;
41709;SDS011;59402;48.396;-4.472;2023-02-13T08:50:23;42.03;;;26.95;;
41709;SDS011;59402;48.396;-4.472;2023-02-13T08:52:49;41.25;;;24.73;;
41709;SDS011;59402;48.396;-4.472;2023-02-13T08:55:15;34.92;;;24.60;;
41709;SDS011;59402;48.396;-4.472;2023-02-13T08:57:41;39.30;;;25.10;;
41709;SDS011;59402;48.396;-4.472;2023-02-13T09:00:07;36.47;;;24.67;;
41709;SDS011;59402;48.396;-4.472;2023-02-13T09:02:33;38.50;;;25.25;;
41709;SDS011;59402;48.396;-4.472;2023-02-13T09:04:58;34.33;;;24.33;;
41709;SDS011;59402;48.396;-4.472;2023-02-13T09:07:24;37.85;;;25.08;;
41709;SDS011;59402;48.396;-4.472;2023-02-13T09:09:50;37.30;;;24.90;;
41709;SDS011;59402;48.396;-4.472;2023-02-13T09:12:15;37.60;;;25.35;;
41709;SDS011;59402;48.396;-4.472;2023-02-13T09:14:41;36.17;;;24.27;;
41709;SDS011;59402;48.396;-4.472;2023-02-13T09:17:07;36.78;;;23.30;;
41709;SDS011;59402;48.396;-4.472;2023-02-13T09:19:33;36.10;;;23.98;;
41709;SDS011;59402;48.396;-4.472;2023-02-13T09:21:58;35.53;;;23.73;;
41709;SDS011;59402;48.396;-4.472;2023-02-13T09:24:24;33.33;;;23.70;;
41709;SDS011;59402;48.396;-4.472;2023-02-13T09:26:50;31.23;;;22.38;;
41709;SDS011;59402;48.396;-4.472;2023-02-13T09:29:16;32.28;;;23.50;;
41709;SDS011;59402;48.396;-4.472;2023-02-13T09:31:41;36.70;;;23.70;;
41709;SDS011;59402;48.396;-4.472;2023-02-13T09:34:07;34.75;;;23.92;;
41709;SDS011;59402;48.396;-4.472;2023-02-13T09:36:33;34.08;;;22.33;;
41709;SDS011;59402;48.396;-4.472;2023-02-13T09:39:00;35.70;;;23.20;;
41709;SDS011;59402;48.396;-4.472;2023-02-13T09:41:30;34.03;;;23.15;;
41709;SDS011;59402;48.396;-4.472;2023-02-13T09:44:04;36.72;;;23.98;;
41709;SDS011;59402;48.396;-4.472;2023-02-13T09:47:10;33.35;;;21.88;;
41709;SDS011;59402;48.396;-4.472;2023-02-13T09:49:40;33.13;;;23.08;;
41709;SDS011;59402;48.396;-4.472;2023-02-13T09:52:09;34.30;;;22.33;;
41709;SDS011;59402;48.396;-4.472;2023-02-13T09:54:35;32.10;;;21.67;;
41709;SDS011;59402;48.396;-4.472;2023-02-13T10:05:13;30.10;;;20.95;;
41709;SDS011;59402;48.396;-4.472;2023-02-13T10:21:54;35.15;;;22.38;;
41709;SDS011;59402;48.396;-4.472;2023-02-13T10:24:31;37.78;;;24.35;;
41709;SDS011;59402;48.396;-4.472;2023-02-13T10:27:25;31.77;;;22.30;;
41709;SDS011;59402;48.396;-4.472;2023-02-13T10:32:49;32.17;;;22.40;;
41709;SDS011;59402;48.396;-4.472;2023-02-13T10:35:48;33.10;;;22.30;;
41709;SDS011;59402;48.396;-4.472;2023-02-13T10:38:21;35.45;;;23.15;;
41709;SDS011;59402;48.396;-4.472;2023-02-13T10:43:44;32.78;;;22.13;;
41709;SDS011;59402;48.396;-4.472;2023-02-13T10:46:54;35.58;;;22.10;;
41709;SDS011;59402;48.396;-4.472;2023-02-13T10:49:28;33.53;;;21.48;;
41709;SDS011;59402;48.396;-4.472;2023-02-13T10:52:10;35.78;;;22.17;;
41709;SDS011;59402;48.396;-4.472;2023-02-13T10:57:52;28.27;;;20.25;;
41709;SDS011;59402;48.396;-4.472;2023-02-13T11:02:59;25.48;;;19.13;;
41709;SDS011;59402;48.396;-4.472;2023-02-13T11:05:29;29.85;;;19.00;;
41709;SDS011;59402;48.396;-4.472;2023-02-13T11:08:02;27.38;;;19.30;;
41709;SDS011;59402;48.396;-4.472;2023-02-13T11:10:34;28.70;;;20.63;;
41709;SDS011;59402;48.396;-4.472;2023-02-13T11:13:12;29.23;;;19.80;;
41709;SDS011;59402;48.396;-4.472;2023-02-13T11:15:40;28.70;;;19.33;;
41709;SDS011;59402;48.396;-4.472;2023-02-13T11:18:13;30.10;;;20.38;;
41709;SDS011;59402;48.396;-4.472;2023-02-13T11:20:43;25.58;;;18.98;;
41709;SDS011;59402;48.396;-4.472;2023-02-13T11:25:40;26.50;;;17.77;;
41709;SDS011;59402;48.396;-4.472;2023-02-13T11:28:07;22.70;;;16.48;;
41709;SDS011;59402;48.396;-4.472;2023-02-13T11:30:35;26.98;;;18.00;;
41709;SDS011;59402;48.396;-4.472;2023-02-13T11:33:13;26.85;;;17.30;;
41709;SDS011;59402;48.396;-4.472;2023-02-13T11:35:48;21.55;;;16.40;;
41709;SDS011;59402;48.396;-4.472;2023-02-13T11:40:44;19.83;;;15.20;;
41709;SDS011;59402;48.396;-4.472;2023-02-13T11:45:46;22.13;;;15.27;;
41709;SDS011;59402;48.396;-4.472;2023-02-13T11:48:18;23.15;;;16.90;;
41709;SDS011;59402;48.396;-4.472;2023-02-13T11:50:49;22.05;;;16.15;;
41709;SDS011;59402;48.396;-4.472;2023-02-13T11:53:23;22.90;;;15.35;;
41709;SDS011;59402;48.396;-4.472;2023-02-13T11:56:06;22.23;;;15.55;;
41709;SDS011;59402;48.396;-4.472;2023-02-13T11:58:33;22.70;;;16.30;;
41709;SDS011;59402;48.396;-4.472;2023-02-13T12:04:28;26.52;;;20.00;;
41709;SDS011;59402;48.396;-4.472;2023-02-13T12:06:40;24.63;;;17.40;;
41709;SDS011;59402;48.396;-4.472;2023-02-13T12:09:10;24.33;;;15.15;;
41709;SDS011;59402;48.396;-4.472;2023-02-13T12:11:50;17.45;;;13.57;;
41709;SDS011;59402;48.396;-4.472;2023-02-13T12:14:21;20.70;;;15.30;;
41709;SDS011;59402;48.396;-4.472;2023-02-13T12:16:54;20.50;;;15.10;;
41709;SDS011;59402;48.396;-4.472;2023-02-13T12:19:38;18.75;;;14.77;;
41709;SDS011;59402;48.396;-4.472;2023-02-13T12:44:16;19.83;;;15.98;;
41709;SDS011;59402;48.396;-4.472;2023-02-13T12:54:04;32.65;;;16.35;;
41709;SDS011;59402;48.396;-4.472;2023-02-13T12:56:58;23.65;;;15.30;;
41709;SDS011;59402;48.396;-4.472;2023-02-13T13:04:49;22.13;;;14.50;;
41709;SDS011;59402;48.396;-4.472;2023-02-13T13:10:17;23.15;;;15.07;;
41709;SDS011;59402;48.396;-4.472;2023-02-13T13:21:12;19.60;;;13.88;;
41709;SDS011;59402;48.396;-4.472;2023-02-13T13:23:43;19.60;;;14.50;;
41709;SDS011;59402;48.396;-4.472;2023-02-13T13:26:14;17.95;;;13.57;;
41709;SDS011;59402;48.396;-4.472;2023-02-13T13:28:57;19.45;;;13.98;;
41709;SDS011;59402;48.396;-4.472;2023-02-13T13:31:24;19.25;;;13.98;;
41709;SDS011;59402;48.396;-4.472;2023-02-13T13:33:51;22.33;;;12.93;;
41709;SDS011;59402;48.396;-4.472;2023-02-13T13:47:45;17.58;;;11.80;;
41709;SDS011;59402;48.396;-4.472;2023-02-13T13:50:51;22.05;;;11.57;;
41709;SDS011;59402;48.396;-4.472;2023-02-13T13:53:19;24.92;;;11.60;;
41709;SDS011;59402;48.396;-4.472;2023-02-13T13:58:34;20.67;;;12.23;;
41709;SDS011;59402;48.396;-4.472;2023-02-13T14:01:18;26.73;;;12.98;;
41709;SDS011;59402;48.396;-4.472;2023-02-13T14:06:23;18.45;;;11.07;;
41709;SDS011;59402;48.396;-4.472;2023-02-13T14:08:55;16.52;;;10.65;;
41709;SDS011;59402;48.396;-4.472;2023-02-13T14:14:01;19.98;;;11.02;;
41709;SDS011;59402;48.396;-4.472;2023-02-13T14:16:58;20.38;;;10.57;;
41709;SDS011;59402;48.396;-4.472;2023-02-13T14:24:49;19.45;;;9.52;;
41709;SDS011;59402;48.396;-4.472;2023-02-13T14:29:48;17.88;;;8.82;;
41709;SDS011;59402;48.396;-4.472;2023-02-13T14:32:15;25.08;;;8.57;;
41709;SDS011;59402;48.396;-4.472;2023-02-13T14:34:55;16.85;;;8.70;;
41709;SDS011;59402;48.396;-4.472;2023-02-13T14:37:30;24.45;;;8.90;;
41709;SDS011;59402;48.396;-4.472;2023-02-13T14:42:45;16.67;;;7.57;;
41709;SDS011;59402;48.396;-4.472;2023-02-13T14:45:19;18.50;;;7.45;;
41709;SDS011;59402;48.396;-4.472;2023-02-13T14:47:51;16.88;;;8.07;;
41709;SDS011;59402;48.396;-4.472;2023-02-13T14:50:27;20.90;;;8.85;;
41709;SDS011;59402;48.396;-4.472;2023-02-13T14:52:56;23.63;;;8.55;;
41709;SDS011;59402;48.396;-4.472;2023-02-13T14:58:01;15.75;;;7.93;;
41709;SDS011;59402;48.396;-4.472;2023-02-13T15:05:50;18.35;;;8.52;;
41709;SDS011;59402;48.396;-4.472;2023-02-13T15:08:21;24.50;;;9.40;;
41709;SDS011;59402;48.396;-4.472;2023-02-13T15:10:51;22.45;;;8.75;;
41709;SDS011;59402;48.396;-4.472;2023-02-13T15:13:22;20.52;;;9.23;;
41709;SDS011;59402;48.396;-4.472;2023-02-13T15:15:50;22.00;;;8.40;;
41709;SDS011;59402;48.396;-4.472;2023-02-13T15:18:18;20.92;;;8.02;;
41709;SDS011;59402;48.396;-4.472;2023-02-13T15:20:49;22.05;;;7.90;;
41709;SDS011;59402;48.396;-4.472;2023-02-13T15:23:21;19.50;;;7.88;;
41709;SDS011;59402;48.396;-4.472;2023-02-13T15:25:57;22.17;;;8.13;;
41709;SDS011;59402;48.396;-4.472;2023-02-13T15:28:25;20.08;;;7.95;;
41709;SDS011;59402;48.396;-4.472;2023-02-13T15:33:20;23.90;;;8.60;;
41709;SDS011;59402;48.396;-4.472;2023-02-13T15:35:55;21.10;;;8.57;;
41709;SDS011;59402;48.396;-4.472;2023-02-13T15:41:08;29.02;;;14.32;;
41709;SDS011;59402;48.396;-4.472;2023-02-13T15:43:43;22.85;;;9.43;;
41709;SDS011;59402;48.396;-4.472;2023-02-13T15:48:49;18.50;;;8.13;;
41709;SDS011;59402;48.396;-4.472;2023-02-13T15:51:20;27.85;;;8.93;;
41709;SDS011;59402;48.396;-4.472;2023-02-13T15:53:55;16.85;;;8.07;;
41709;SDS011;59402;48.396;-4.472;2023-02-13T15:56:31;20.85;;;7.60;;
41709;SDS011;59402;48.396;-4.472;2023-02-13T15:58:57;21.48;;;9.25;;
41709;SDS011;59402;48.396;-4.472;2023-02-13T16:01:24;23.48;;;8.68;;
41709;SDS011;59402;48.396;-4.472;2023-02-13T16:03:53;22.55;;;8.68;;
41709;SDS011;59402;48.396;-4.472;2023-02-13T16:06:24;21.65;;;7.55;;
41709;SDS011;59402;48.396;-4.472;2023-02-13T16:08:51;24.17;;;7.90;;
41709;SDS011;59402;48.396;-4.472;2023-02-13T16:13:59;24.38;;;7.80;;
41709;SDS011;59402;48.396;-4.472;2023-02-13T16:16:32;18.83;;;7.93;;
41709;SDS011;59402;48.396;-4.472;2023-02-13T16:19:26;19.52;;;7.80;;
41709;SDS011;59402;48.396;-4.472;2023-02-13T16:22:32;21.27;;;7.93;;
41709;SDS011;59402;48.396;-4.472;2023-02-13T16:27:40;25.10;;;8.13;;
41709;SDS011;59402;48.396;-4.472;2023-02-13T16:30:15;20.67;;;8.27;;
41709;SDS011;59402;48.396;-4.472;2023-02-13T16:32:47;21.33;;;8.30;;
41709;SDS011;59402;48.396;-4.472;2023-02-13T16:35:27;29.08;;;9.73;;
41709;SDS011;59402;48.396;-4.472;2023-02-13T16:37:56;24.17;;;9.13;;
41709;SDS011;59402;48.396;-4.472;2023-02-13T16:56:50;26.25;;;9.13;;
41709;SDS011;59402;48.396;-4.472;2023-02-13T16:59:24;23.20;;;9.10;;
41709;SDS011;59402;48.396;-4.472;2023-02-13T17:07:13;27.02;;;8.27;;
41709;SDS011;59402;48.396;-4.472;2023-02-13T17:09:57;23.73;;;8.38;;
41709;SDS011;59402;48.396;-4.472;2023-02-13T17:12:42;24.38;;;8.95;;
41709;SDS011;59402;48.396;-4.472;2023-02-13T17:15:16;26.67;;;9.45;;
41709;SDS011;59402;48.396;-4.472;2023-02-13T17:17:43;26.63;;;9.27;;
41709;SDS011;59402;48.396;-4.472;2023-02-13T17:20:13;23.75;;;9.48;;
41709;SDS011;59402;48.396;-4.472;2023-02-13T17:22:42;27.23;;;9.57;;
41709;SDS011;59402;48.396;-4.472;2023-02-13T17:25:19;26.02;;;9.05;;
41709;SDS011;59402;48.396;-4.472;2023-02-13T17:30:17;26.45;;;8.95;;
41709;SDS011;59402;48.396;-4.472;2023-02-13T17:32:49;19.55;;;8.77;;
41709;SDS011;59402;48.396;-4.472;2023-02-13T17:35:22;26.08;;;9.35;;
41709;SDS011;59402;48.396;-4.472;2023-02-13T17:37:48;21.63;;;9.32;;
41709;SDS011;59402;48.396;-4.472;2023-02-13T17:42:45;20.02;;;8.90;;
41709;SDS011;59402;48.396;-4.472;2023-02-13T17:45:12;26.50;;;10.02;;
41709;SDS011;59402;48.396;-4.472;2023-02-13T17:50:06;23.77;;;8.95;;
41709;SDS011;59402;48.396;-4.472;2023-02-13T17:52:32;23.10;;;9.75;;
41709;SDS011;59402;48.396;-4.472;2023-02-13T17:54:58;26.10;;;8.95;;
41709;SDS011;59402;48.396;-4.472;2023-02-13T17:57:24;21.58;;;8.60;;
41709;SDS011;59402;48.396;-4.472;2023-02-13T17:59:49;19.73;;;9.15;;
41709;SDS011;59402;48.396;-4.472;2023-02-13T18:02:17;20.10;;;8.73;;
41709;SDS011;59402;48.396;-4.472;2023-02-13T18:04:44;24.70;;;10.13;;
41709;SDS011;59402;48.396;-4.472;2023-02-13T18:07:11;27.13;;;10.25;;
41709;SDS011;59402;48.396;-4.472;2023-02-13T18:09:38;29.27;;;10.38;;